Time;durP1;ratioP1;P1;durP2;ratioP2;P2;SDS_P1;SDS_P2;PMS_P1;PMS_P2;Temp;Humidity;BMP_temperature;BMP_pressure;BME280_temperature;BME280_humidity;BME280_pressure;Samples;Min_cycle;Max_cycle;Signal;HPM_P1;HPM_P2
2021/08/04 00:00:12;;;;;;;6.80;3.60;;;;;;;20.99;71.86;99949.50;5055601;28;20044;-77
2021/08/04 00:02:40;;;;;;;;;;;;;;;20.91;72.96;99941.34;5055391;28;20120;-77
2021/08/04 00:05:10;;;;;;;8.00;3.58;;;;;;;20.88;72.87;99946.25;5055859;28;19921;-88
2021/08/04 00:07:38;;;;;;;5.88;3.53;;;;;;;20.86;73.64;99941.84;5055306;28;20047;-90
2021/08/04 00:10:08;;;;;;;8.65;3.70;;;;;;;20.84;73.65;99943.88;5054273;28;20052;-89
2021/08/04 00:12:36;;;;;;;8.23;3.92;;;;;;;20.87;73.43;99939.97;5055088;28;20131;-87
2021/08/04 00:15:05;;;;;;;7.07;3.72;;;;;;;20.85;73.65;99942.03;5055339;28;20044;-86
2021/08/04 00:17:35;;;;;;;5.97;3.70;;;;;;;20.84;74.05;99941.16;5054535;28;20408;-89
2021/08/04 00:20:04;;;;;;;7.32;3.65;;;;;;;20.93;73.45;99944.72;5055568;28;20037;-89
2021/08/04 00:22:33;;;;;;;5.85;3.50;;;;;;;20.98;73.13;99936.94;5055409;28;20102;-88
2021/08/04 00:25:01;;;;;;;5.70;3.58;;;;;;;21.00;72.49;99944.91;5055070;28;20492;-87
2021/08/04 00:27:30;;;;;;;6.90;3.55;;;;;;;21.00;72.57;99940.34;5054997;28;20099;-87
2021/08/04 00:30:00;;;;;;;7.00;3.80;;;;;;;21.00;72.81;99940.34;5055244;28;20079;-87
2021/08/04 00:32:28;;;;;;;7.32;3.70;;;;;;;20.88;73.34;99930.84;5055456;28;20072;-79
2021/08/04 00:34:58;;;;;;;5.07;3.33;;;;;;;20.79;73.54;99932.66;5054557;28;20479;-78
2021/08/04 00:37:27;;;;;;;7.47;3.45;;;;;;;20.93;72.92;99922.19;5054909;28;20036;-78
2021/08/04 00:39:55;;;;;;;7.75;3.63;;;;;;;20.99;72.21;99916.94;5054436;28;20045;-78
2021/08/04 00:42:23;;;;;;;5.95;3.50;;;;;;;21.12;71.19;99911.88;5054677;28;20049;-78
2021/08/04 00:44:52;;;;;;;5.47;3.42;;;;;;;21.06;71.69;99911.72;5054378;28;20044;-81
2021/08/04 00:47:20;;;;;;;7.03;3.63;;;;;;;21.01;72.17;99908.66;5054551;28;20496;-83
2021/08/04 00:49:49;;;;;;;4.82;3.53;;;;;;;20.87;73.08;99912.88;5054348;28;20045;-79
2021/08/04 00:52:18;;;;;;;6.53;3.72;;;;;;;20.91;72.97;99913.38;5054400;28;20158;-78
2021/08/04 00:54:46;;;;;;;6.00;3.80;;;;;;;20.85;73.64;99918.47;5054267;28;20049;-74
2021/08/04 00:57:15;;;;;;;7.28;3.83;;;;;;;20.89;73.66;99910.84;5054603;28;20159;-82
2021/08/04 00:59:43;;;;;;;7.88;3.70;;;;;;;20.70;75.19;99906.56;5054350;28;20391;-84
2021/08/04 01:02:16;;;;;;;7.20;3.55;;;;;;;20.53;76.35;99915.66;5054501;28;20053;-80
2021/08/04 01:04:47;;;;;;;;;;;;;;;20.51;76.76;99918.53;5054420;28;20051;-82
2021/08/04 01:07:22;;;;;;;11.30;3.90;;;;;;;20.45;77.22;99919.16;5052889;28;19925;-81
2021/08/04 01:09:55;;;;;;;7.47;3.92;;;;;;;20.52;76.82;99917.50;5054211;28;20124;-81
2021/08/04 01:12:35;;;;;;;7.72;3.78;;;;;;;20.40;78.18;99916.09;5054280;28;20057;-83
2021/08/04 01:15:06;;;;;;;6.72;3.92;;;;;;;20.23;79.33;99909.75;5054210;28;20044;-82
2021/08/04 01:17:37;;;;;;;8.32;3.92;;;;;;;20.24;78.96;99900.59;5054011;28;20041;-82
2021/08/04 01:20:11;;;;;;;7.25;4.20;;;;;;;20.46;78.28;99901.94;5053906;28;20095;-80
2021/08/04 01:22:54;;;;;;;7.10;4.30;;;;;;;20.68;76.92;99899.63;5053687;28;20060;-80
2021/08/04 01:25:29;;;;;;;7.93;4.63;;;;;;;20.45;77.94;99900.22;5054040;28;20480;-81
2021/08/04 01:28:21;;;;;;;6.25;4.20;;;;;;;20.32;78.62;99894.38;5053567;28;20752;-81
2021/08/04 01:30:52;;;;;;;6.32;4.15;;;;;;;20.35;78.60;99887.78;5053851;28;20044;-80
2021/08/04 01:33:21;;;;;;;5.88;4.10;;;;;;;20.28;79.61;99890.31;5054172;28;20128;-81
2021/08/04 01:35:51;;;;;;;9.32;4.55;;;;;;;20.08;81.31;99899.72;5053685;28;20488;-81
2021/08/04 01:38:23;;;;;;;8.20;4.67;;;;;;;19.94;82.06;99890.31;5053769;28;20431;-80
2021/08/04 01:40:55;;;;;;;6.50;4.78;;;;;;;19.95;82.08;99892.00;5053127;28;20045;-80
2021/08/04 01:43:26;;;;;;;6.00;4.60;;;;;;;19.83;82.70;99891.44;5053859;28;20389;-79
2021/08/04 01:45:57;;;;;;;7.80;5.13;;;;;;;20.13;81.18;99898.19;5053219;28;20442;-80
2021/08/04 01:48:27;;;;;;;8.23;4.75;;;;;;;20.15;80.58;99896.16;5053528;28;20115;-80
2021/08/04 01:51:00;;;;;;;8.85;5.25;;;;;;;20.02;81.24;99899.34;5053117;28;20488;-80
2021/08/04 01:53:30;;;;;;;7.97;5.13;;;;;;;19.89;82.65;99896.22;5053725;28;20041;-80
2021/08/04 01:55:58;;;;;;;9.05;5.30;;;;;;;19.85;83.36;99897.53;5052946;28;20059;-80
2021/08/04 01:58:28;;;;;;;9.32;5.07;;;;;;;19.97;82.47;99892.69;5053370;28;20041;-82
2021/08/04 02:00:56;;;;;;;8.07;4.95;;;;;;;20.07;81.90;99903.41;5052940;28;20048;-81
2021/08/04 02:03:26;;;;;;;7.65;5.38;;;;;;;20.11;81.30;99905.63;5053155;28;20450;-81
2021/08/04 02:05:55;;;;;;;6.72;4.80;;;;;;;20.18;80.44;99908.56;5052869;28;20057;-80
2021/08/04 02:08:29;;;;;;;8.50;4.93;;;;;;;20.13;80.75;99902.75;5053052;28;20045;-82
2021/08/04 02:11:05;;;;;;;9.00;4.88;;;;;;;20.03;81.24;99908.31;5052874;28;20053;-82
2021/08/04 02:13:43;;;;;;;6.80;4.75;;;;;;;19.97;81.71;99907.06;5053206;28;20036;-82
2021/08/04 02:16:24;;;;;;;9.30;4.85;;;;;;;19.85;82.96;99911.06;5053015;28;20503;-85
2021/08/04 02:19:08;;;;;;;11.65;4.85;;;;;;;19.91;82.84;99909.59;5052675;28;20051;-85
2021/08/04 02:21:41;;;;;;;8.57;5.03;;;;;;;20.02;82.33;99915.56;5053131;28;20399;-85
2021/08/04 02:24:11;;;;;;;7.80;4.97;;;;;;;19.99;82.06;99917.78;5052839;28;20041;-80
2021/08/04 02:26:41;;;;;;;6.57;4.78;;;;;;;19.93;82.23;99921.09;5052891;28;20043;-76
2021/08/04 02:29:12;;;;;;;9.32;5.03;;;;;;;19.79;84.25;99927.97;5053166;28;20053;-76
2021/08/04 02:31:42;;;;;;;8.80;5.13;;;;;;;19.71;85.39;99927.91;5052553;28;20045;-77
2021/08/04 02:34:11;;;;;;;6.88;4.70;;;;;;;19.67;85.92;99929.22;5052484;28;20049;-77
2021/08/04 02:36:41;;;;;;;8.30;4.50;;;;;;;19.67;86.77;99931.91;5052676;28;20041;-77
2021/08/04 02:39:09;;;;;;;7.50;4.50;;;;;;;19.76;85.66;99932.81;5052792;28;20052;-77
2021/08/04 02:41:38;;;;;;;8.15;4.70;;;;;;;19.77;84.60;99929.97;5052856;28;20450;-77
2021/08/04 02:44:06;;;;;;;7.13;4.75;;;;;;;19.83;83.94;99929.34;5052316;28;20041;-77
2021/08/04 02:46:36;;;;;;;7.47;4.65;;;;;;;19.96;82.86;99928.91;5052696;28;20102;-77
2021/08/04 02:49:04;;;;;;;8.07;4.60;;;;;;;19.93;82.90;99927.38;5052338;28;20056;-76
2021/08/04 02:51:34;;;;;;;7.47;4.38;;;;;;;19.95;82.53;99928.03;5052576;28;20500;-76
2021/08/04 02:54:03;;;;;;;7.22;4.55;;;;;;;19.79;83.47;99922.56;5053887;28;20116;-79
2021/08/04 02:56:31;;;;;;;7.05;5.00;;;;;;;19.86;83.48;99926.28;5053827;28;20037;-80
2021/08/04 02:59:00;;;;;;;8.63;4.82;;;;;;;19.78;83.88;99922.69;5053686;28;20052;-79
2021/08/04 03:01:28;;;;;;;7.15;4.95;;;;;;;19.82;83.53;99927.63;5052805;28;20037;-79
2021/08/04 03:03:58;;;;;;;7.72;4.22;;;;;;;19.78;82.99;99919.97;5052497;28;20037;-79
2021/08/04 03:06:26;;;;;;;7.45;4.55;;;;;;;19.71;83.62;99917.09;5051738;28;20064;-79
2021/08/04 03:08:54;;;;;;;6.95;4.20;;;;;;;19.56;84.74;99924.06;5052547;28;20447;-78
2021/08/04 03:11:25;;;;;;;8.18;4.40;;;;;;;19.43;85.75;99933.41;5053022;28;20132;-79
2021/08/04 03:13:53;;;;;;;8.13;4.60;;;;;;;19.41;86.82;99935.44;5052504;28;20450;-78
2021/08/04 03:16:22;;;;;;;7.45;4.65;;;;;;;19.49;87.09;99963.53;5052571;28;20041;-78
2021/08/04 03:18:51;;;;;;;7.40;4.30;;;;;;;19.38;86.60;99978.16;5052826;28;20049;-78
2021/08/04 03:21:20;;;;;;;6.68;4.03;;;;;;;19.49;85.09;99974.34;5052545;28;20049;-82
2021/08/04 03:23:49;;;;;;;5.97;3.88;;;;;;;19.41;82.01;99973.28;5052388;28;20048;-81
2021/08/04 03:26:17;;;;;;;5.80;3.70;;;;;;;19.35;80.57;99967.66;5052762;28;20048;-81
2021/08/04 03:28:45;;;;;;;5.95;3.90;;;;;;;19.48;80.42;99957.28;5052489;28;20141;-79
2021/08/04 03:31:13;;;;;;;5.85;3.80;;;;;;;19.49;77.99;99968.94;5052850;28;20438;-81
2021/08/04 03:33:41;;;;;;;6.13;3.88;;;;;;;19.47;78.17;99981.78;5052649;28;20043;-81
2021/08/04 03:36:10;;;;;;;6.65;3.75;;;;;;;19.42;78.83;99969.59;5052285;28;20095;-82
2021/08/04 03:38:40;;;;;;;6.50;3.60;;;;;;;19.49;78.71;99961.66;5052451;28;20049;-78
2021/08/04 03:41:09;;;;;;;5.55;3.67;;;;;;;19.39;77.91;99969.03;5052145;28;20376;-80
2021/08/04 03:43:37;;;;;;;5.65;3.80;;;;;;;19.38;78.63;99970.03;5053234;28;20044;-81
2021/08/04 03:46:05;;;;;;;8.07;4.10;;;;;;;19.45;78.31;99961.16;5055915;28;20041;-85
2021/08/04 03:48:33;;;;;;;5.13;3.35;;;;;;;19.69;75.38;99963.25;5055307;28;20483;-85
2021/08/04 03:51:03;;;;;;;5.38;3.58;;;;;;;19.68;75.99;99960.66;5055935;28;20502;-83
2021/08/04 03:53:31;;;;;;;5.85;3.63;;;;;;;19.76;75.75;99962.59;5056319;28;20080;-84
2021/08/04 03:56:00;;;;;;;7.40;3.70;;;;;;;19.90;74.66;99973.72;5054363;28;20423;-86
2021/08/04 03:58:29;;;;;;;7.50;4.00;;;;;;;19.94;74.15;99969.66;5055780;28;20518;-86
2021/08/04 04:00:57;;;;;;;5.85;3.58;;;;;;;19.96;74.18;99966.78;5055605;28;20052;-87
2021/08/04 04:03:26;;;;;;;4.88;3.22;;;;;;;19.96;73.84;99964.94;5055703;28;20124;-79
2021/08/04 04:05:54;;;;;;;6.70;3.80;;;;;;;19.86;74.44;99982.28;5055331;28;20048;-78
2021/08/04 04:08:22;;;;;;;6.45;3.40;;;;;;;20.05;73.69;99981.22;5055255;28;20460;-78
2021/08/04 04:10:50;;;;;;;6.60;3.70;;;;;;;19.96;73.63;99986.59;5053901;28;20090;-77
2021/08/04 04:13:23;;;;;;;6.85;3.45;;;;;;;20.01;73.58;99986.13;5055324;28;20045;-78
2021/08/04 04:15:51;;;;;;;6.57;3.40;;;;;;;20.01;74.17;99995.09;5055015;28;20059;-78
2021/08/04 04:18:19;;;;;;;7.15;3.75;;;;;;;19.77;76.09;99983.22;5055336;28;20052;-81
2021/08/04 04:20:47;;;;;;;7.05;3.88;;;;;;;19.74;76.14;99989.81;5055180;28;20384;-78
2021/08/04 04:23:16;;;;;;;8.20;3.90;;;;;;;19.75;75.79;99996.91;5055170;28;20064;-76
2021/08/04 04:25:44;;;;;;;8.80;3.47;;;;;;;19.94;75.42;99996.72;5055213;28;20068;-77
2021/08/04 04:28:12;;;;;;;7.28;3.50;;;;;;;19.97;74.92;100000.97;5054356;28;20049;-77
2021/08/04 04:30:42;;;;;;;6.03;3.55;;;;;;;19.99;74.81;100005.25;5055248;28;20071;-78
2021/08/04 04:33:11;;;;;;;7.15;3.30;;;;;;;19.96;74.56;100000.13;5054661;28;20275;-77
2021/08/04 04:35:39;;;;;;;6.05;3.47;;;;;;;19.83;75.63;99999.69;5054688;28;20094;-78
2021/08/04 04:38:07;;;;;;;6.97;3.53;;;;;;;19.97;74.74;100001.81;5054516;28;20060;-79
2021/08/04 04:40:35;;;;;;;7.03;3.50;;;;;;;20.02;74.27;99993.22;5054675;28;20048;-80
2021/08/04 04:43:04;;;;;;;6.60;3.53;;;;;;;19.87;75.33;99995.66;5054281;28;20041;-77
2021/08/04 04:45:32;;;;;;;8.18;3.90;;;;;;;19.78;75.51;99996.59;5054478;28;20041;-74
2021/08/04 04:48:01;;;;;;;6.07;3.35;;;;;;;19.95;74.58;99995.72;5058100;28;20546;-73
2021/08/04 04:50:30;;;;;;;8.02;3.55;;;;;;;20.00;75.25;100004.22;5054324;28;20049;-73
2021/08/04 04:52:58;;;;;;;6.07;3.50;;;;;;;20.18;74.20;99989.78;5054486;28;20533;-73
2021/08/04 04:55:26;;;;;;;6.78;3.70;;;;;;;20.58;72.92;100000.88;5053915;28;20048;-72
2021/08/04 04:57:55;;;;;;;5.20;3.80;;;;;;;20.45;73.11;100005.88;5054181;28;20499;-73
2021/08/04 05:00:23;;;;;;;6.13;3.40;;;;;;;20.37;73.69;100002.25;5054367;28;20052;-72
2021/08/04 05:02:51;;;;;;;6.50;3.85;;;;;;;20.26;73.98;100006.06;5054337;28;20045;-72
2021/08/04 05:05:22;;;;;;;5.65;3.78;;;;;;;20.14;74.30;100012.75;5054347;28;20094;-71
2021/08/04 05:07:50;;;;;;;5.47;3.50;;;;;;;20.43;73.02;100007.88;5054293;28;20045;-71
2021/08/04 05:10:20;;;;;;;8.10;3.60;;;;;;;20.40;72.65;100007.34;5054160;28;20514;-70
2021/08/04 05:12:48;;;;;;;7.07;3.47;;;;;;;20.19;73.51;100011.28;5054243;28;20045;-70
2021/08/04 05:15:17;;;;;;;6.68;3.38;;;;;;;20.32;72.85;100010.84;5052268;28;20056;-74
2021/08/04 05:17:45;;;;;;;6.72;3.58;;;;;;;20.70;71.77;100012.25;5053902;28;20048;-74
2021/08/04 05:20:21;;;;;;;5.30;3.10;;;;;;;21.04;70.71;100008.66;5053442;28;20444;-74
2021/08/04 05:22:50;;;;;;;5.07;3.05;;;;;;;21.09;69.82;100012.56;5054046;28;20041;-74
2021/08/04 05:25:19;;;;;;;5.20;3.47;;;;;;;21.66;67.76;100018.09;5053700;28;20053;-74
2021/08/04 05:27:48;;;;;;;6.15;3.20;;;;;;;22.72;64.24;100015.22;5053494;28;20041;-73
2021/08/04 05:30:18;;;;;;;5.22;3.22;;;;;;;23.39;61.08;100021.00;5053848;28;20443;-74
2021/08/04 05:32:47;;;;;;;7.43;2.90;;;;;;;23.48;60.20;100016.34;5053939;28;20119;-74
2021/08/04 05:35:15;;;;;;;6.55;2.80;;;;;;;23.45;58.47;100024.88;5053491;28;20452;-74
2021/08/04 05:37:43;;;;;;;6.40;2.70;;;;;;;22.15;62.73;100031.66;5054048;28;20037;-74
2021/08/04 05:40:16;;;;;;;5.10;2.70;;;;;;;22.17;63.18;100028.78;5053524;28;20037;-74
2021/08/04 05:42:45;;;;;;;4.95;2.95;;;;;;;21.51;65.86;100030.63;5053867;28;20052;-75
2021/08/04 05:45:14;;;;;;;6.30;2.78;;;;;;;21.39;66.68;100026.53;5053456;28;20052;-75
2021/08/04 05:47:42;;;;;;;6.78;3.10;;;;;;;21.57;65.63;100032.69;5052209;28;20045;-74
2021/08/04 05:50:11;;;;;;;5.47;2.70;;;;;;;21.54;65.81;100035.72;5053293;28;20037;-74
2021/08/04 05:52:40;;;;;;;7.38;2.95;;;;;;;21.25;67.29;100038.03;5053371;28;20068;-75
2021/08/04 05:55:09;;;;;;;6.32;3.20;;;;;;;21.58;66.56;100039.78;5053294;28;20052;-75
2021/08/04 05:57:40;;;;;;;7.32;3.10;;;;;;;21.59;65.68;100044.19;5053453;28;20385;-74
2021/08/04 06:00:09;;;;;;;4.85;2.88;;;;;;;21.70;65.38;100046.59;5053209;28;20124;-76
2021/08/04 06:02:38;;;;;;;11.18;4.68;;;;;;;21.97;64.74;100052.69;5053373;28;20048;-75
2021/08/04 06:05:07;;;;;;;6.63;3.83;;;;;;;22.53;63.23;100045.50;5053000;28;20055;-73
2021/08/04 06:07:35;;;;;;;5.78;3.50;;;;;;;22.97;61.83;100045.03;5051676;28;20056;-73
2021/08/04 06:10:06;;;;;;;6.88;3.13;;;;;;;22.61;62.63;100037.34;5053101;28;20045;-76
2021/08/04 06:12:35;;;;;;;5.25;2.95;;;;;;;22.86;61.82;100032.66;5053376;28;20384;-74
2021/08/04 06:15:05;;;;;;;5.57;3.10;;;;;;;22.99;61.74;100043.00;5052733;28;20072;-74
2021/08/04 06:17:34;;;;;;;6.65;2.85;;;;;;;22.82;61.98;100026.72;5052882;28;20095;-75
2021/08/04 06:20:03;;;;;;;5.90;2.88;;;;;;;23.32;61.08;100025.44;5052724;28;20072;-76
2021/08/04 06:22:34;;;;;;;4.20;2.38;;;;;;;23.29;60.17;100019.53;5053287;28;20041;-77
2021/08/04 06:25:03;;;;;;;4.95;2.80;;;;;;;23.64;59.43;100020.81;5052716;28;20436;-72
2021/08/04 06:27:31;;;;;;;9.07;2.80;;;;;;;23.28;60.49;100021.41;5052846;28;20072;-70
2021/08/04 06:30:02;;;;;;;4.10;2.75;;;;;;;23.36;60.07;100013.19;5053037;28;20061;-70
2021/08/04 06:32:31;;;;;;;6.15;2.72;;;;;;;23.55;59.54;100011.03;5053017;28;20037;-69
2021/08/04 06:34:59;;;;;;;4.47;2.70;;;;;;;23.51;59.58;100010.53;5052618;28;20049;-77
2021/08/04 06:37:28;;;;;;;5.28;2.60;;;;;;;23.80;58.34;100001.63;5052801;28;20055;-70
2021/08/04 06:39:56;;;;;;;6.15;2.83;;;;;;;24.38;57.08;100000.06;5052738;28;20045;-70
2021/08/04 06:42:24;;;;;;;4.85;2.65;;;;;;;24.41;56.09;100002.41;5052785;28;20044;-73
2021/08/04 06:44:52;;;;;;;5.35;2.70;;;;;;;24.83;54.12;100000.91;5052690;28;20044;-74
2021/08/04 06:47:21;;;;;;;4.78;2.50;;;;;;;24.35;56.38;100005.06;5052208;28;20145;-73
2021/08/04 06:49:50;;;;;;;5.32;2.58;;;;;;;23.62;58.45;100006.56;5051195;28;20049;-74
2021/08/04 06:52:18;;;;;;;6.10;2.55;;;;;;;23.55;59.13;100011.03;5052274;28;20036;-73
2021/08/04 06:54:46;;;;;;;8.85;2.67;;;;;;;23.78;58.56;100009.16;5052658;28;20048;-74
2021/08/04 06:57:15;;;;;;;4.50;2.58;;;;;;;23.60;58.09;100017.63;5052212;28;20037;-73
2021/08/04 06:59:43;;;;;;;4.10;2.47;;;;;;;23.52;58.54;100014.94;5052688;28;20091;-74
2021/08/04 07:02:11;;;;;;;4.70;2.60;;;;;;;23.72;58.36;100007.16;5052646;28;20048;-75
2021/08/04 07:04:40;;;;;;;4.85;2.78;;;;;;;23.76;58.66;100011.22;5052216;28;20040;-74
2021/08/04 07:07:09;;;;;;;6.20;2.80;;;;;;;24.07;57.50;100012.97;5052053;28;20484;-75
2021/08/04 07:09:37;;;;;;;6.47;2.95;;;;;;;23.89;58.50;100019.59;5052653;28;20465;-74
2021/08/04 07:12:08;;;;;;;7.25;2.50;;;;;;;24.73;56.04;100014.00;5052401;28;20045;-75
2021/08/04 07:14:36;;;;;;;5.20;2.45;;;;;;;24.93;55.43;100017.81;5052422;28;20045;-74
2021/08/04 07:17:06;;;;;;;5.18;2.30;;;;;;;25.02;54.70;100016.69;5052232;28;20037;-75
2021/08/04 07:19:34;;;;;;;5.03;2.63;;;;;;;25.29;54.56;100019.75;5055112;28;20072;-73
2021/08/04 07:22:03;;;;;;;6.65;2.90;;;;;;;25.50;53.18;100018.91;5056273;28;20051;-74
2021/08/04 07:24:37;;;;;;;;;;;;;;;25.46;53.88;100012.13;5056658;28;20045;-74
2021/08/04 07:27:05;;;;;;;4.47;2.63;;;;;;;25.06;54.44;100015.25;5056088;28;19920;-75
2021/08/04 07:29:34;;;;;;;4.38;2.35;;;;;;;24.90;55.43;100014.59;5056144;28;20049;-73
2021/08/04 07:32:03;;;;;;;6.30;2.40;;;;;;;25.20;54.41;100013.56;5056222;28;20044;-74
2021/08/04 07:34:31;;;;;;;6.00;2.60;;;;;;;25.05;55.74;100010.84;5056128;28;20057;-73
2021/08/04 07:36:59;;;;;;;6.03;2.70;;;;;;;25.43;54.09;100007.91;5055896;28;20055;-73
2021/08/04 07:39:28;;;;;;;4.43;2.28;;;;;;;25.54;53.64;99999.19;5055777;28;20044;-74
2021/08/04 07:41:58;;;;;;;4.68;2.45;;;;;;;25.46;54.07;100002.06;5056082;28;20049;-73
2021/08/04 07:44:26;;;;;;;4.63;2.30;;;;;;;25.35;53.91;100002.56;5055453;28;20388;-73
2021/08/04 07:46:55;;;;;;;6.75;2.50;;;;;;;25.42;53.78;100000.75;5055685;28;20040;-73
2021/08/04 07:49:23;;;;;;;4.68;2.50;;;;;;;25.42;54.63;100010.84;5055493;28;20045;-74
2021/08/04 07:51:51;;;;;;;7.15;2.63;;;;;;;25.47;54.17;100006.47;5055730;28;20045;-73
2021/08/04 07:54:20;;;;;;;5.30;2.40;;;;;;;25.34;55.01;100001.72;5055612;28;20099;-74
2021/08/04 07:56:49;;;;;;;5.47;2.40;;;;;;;25.39;55.59;100006.63;5055584;28;20048;-74
2021/08/04 07:59:18;;;;;;;4.90;2.40;;;;;;;25.36;54.60;100002.38;5055343;28;20049;-74
2021/08/04 08:01:46;;;;;;;4.85;2.60;;;;;;;25.32;55.19;100003.81;5055435;28;20114;-74
2021/08/04 08:04:15;;;;;;;4.65;2.47;;;;;;;25.62;53.70;100011.88;5055396;28;20041;-74
2021/08/04 08:06:43;;;;;;;5.18;2.33;;;;;;;25.62;54.04;100007.25;5055182;28;20045;-74
2021/08/04 08:09:13;;;;;;;6.47;2.83;;;;;;;25.68;53.48;100011.13;5055084;28;20095;-74
2021/08/04 08:11:41;;;;;;;5.97;2.60;;;;;;;25.41;54.14;100015.47;5055930;28;20487;-74
2021/08/04 08:14:09;;;;;;;5.80;2.70;;;;;;;25.43;53.90;100021.56;5054931;28;20495;-74
2021/08/04 08:16:39;;;;;;;4.18;2.58;;;;;;;25.42;54.79;100019.03;5055124;28;20098;-74
2021/08/04 08:19:08;;;;;;;5.40;2.63;;;;;;;25.25;53.87;100013.81;5055365;28;20037;-74
2021/08/04 08:21:36;;;;;;;4.50;2.40;;;;;;;25.35;54.18;100014.34;5055204;28;20047;-74
2021/08/04 08:24:05;;;;;;;5.20;2.70;;;;;;;25.53;54.45;100013.06;5055154;28;20090;-73
2021/08/04 08:26:35;;;;;;;6.38;2.58;;;;;;;25.23;55.26;100017.78;5055035;28;20043;-74
2021/08/04 08:29:04;;;;;;;5.88;2.80;;;;;;;25.55;54.67;100017.28;5054686;28;20061;-74
2021/08/04 08:31:33;;;;;;;4.28;2.10;;;;;;;25.76;52.74;100015.59;5053880;28;20051;-74
2021/08/04 08:34:03;;;;;;;6.47;3.00;;;;;;;25.75;52.73;100017.50;5055128;28;20510;-74
2021/08/04 08:36:33;;;;;;;7.10;2.80;;;;;;;25.77;52.29;100015.44;5054761;28;20044;-74
2021/08/04 08:39:05;;;;;;;7.70;2.90;;;;;;;25.92;53.84;100005.25;5054992;28;20083;-75
2021/08/04 08:41:33;;;;;;;6.45;2.50;;;;;;;26.22;52.29;100008.63;5054017;28;20060;-74
2021/08/04 08:44:01;;;;;;;7.68;2.80;;;;;;;26.20;51.81;100016.19;5055294;28;20049;-74
2021/08/04 08:46:31;;;;;;;6.35;2.83;;;;;;;26.44;52.40;100014.06;5054756;28;20091;-74
2021/08/04 08:49:01;;;;;;;5.80;2.88;;;;;;;26.66;51.53;100015.69;5053609;28;20076;-74
2021/08/04 08:51:31;;;;;;;6.32;2.67;;;;;;;26.68;51.26;100013.56;5054344;28;20041;-74
2021/08/04 08:54:01;;;;;;;5.90;2.63;;;;;;;26.91;49.99;100017.88;5054584;28;20090;-74
2021/08/04 08:56:30;;;;;;;6.38;2.60;;;;;;;26.87;49.38;100016.63;5054250;28;20052;-74
2021/08/04 08:58:58;;;;;;;5.10;2.40;;;;;;;26.94;50.08;100022.97;5054531;28;20527;-74
2021/08/04 09:01:35;;;;;;;11.43;2.70;;;;;;;26.98;48.22;100016.88;5054193;28;20064;-74
2021/08/04 09:04:07;;;;;;;4.18;2.40;;;;;;;26.99;47.61;100009.50;5054537;28;20049;-74
2021/08/04 09:06:57;;;;;;;5.65;2.70;;;;;;;26.88;49.01;100002.72;5054497;28;20079;-74
2021/08/04 09:09:32;;;;;;;5.70;2.60;;;;;;;26.85;48.57;100002.31;5054111;28;20047;-74
2021/08/04 09:12:13;;;;;;;5.35;2.70;;;;;;;26.58;49.04;99996.69;5054138;28;20052;-74
2021/08/04 09:14:43;;;;;;;5.72;2.60;;;;;;;26.67;49.35;99998.22;5054289;28;20041;-74
2021/08/04 09:17:13;;;;;;;5.50;2.90;;;;;;;26.91;49.27;99998.72;5053113;28;20127;-75
2021/08/04 09:19:45;;;;;;;7.85;3.00;;;;;;;27.15;49.03;100003.69;5054308;28;20045;-74
2021/08/04 09:22:19;;;;;;;4.70;2.80;;;;;;;27.11;48.86;99999.66;5053995;28;20041;-74
2021/08/04 09:25:03;;;;;;;9.77;2.97;;;;;;;26.84;49.38;99995.13;5054078;28;20047;-74
2021/08/04 09:27:49;;;;;;;7.57;2.90;;;;;;;26.94;48.41;99992.88;5054027;28;20045;-74
2021/08/04 09:30:22;;;;;;;4.25;2.67;;;;;;;26.85;49.26;99996.81;5053853;28;20120;-74
2021/08/04 09:32:50;;;;;;;7.68;2.97;;;;;;;26.87;50.29;100000.19;5054124;28;20487;-73
2021/08/04 09:35:23;;;;;;;6.65;2.70;;;;;;;27.08;48.61;99992.72;5053792;28;20044;-74
2021/08/04 09:38:05;;;;;;;;;;;;;;;26.86;49.07;99996.63;5054195;28;20446;-74
2021/08/04 09:40:33;;;;;;;5.75;2.67;;;;;;;26.75;50.71;99995.31;5053629;28;20007;-74
2021/08/04 09:43:02;;;;;;;6.13;3.00;;;;;;;27.05;49.17;99992.31;5053115;28;20072;-74
2021/08/04 09:45:41;;;;;;;6.03;3.05;;;;;;;27.03;49.05;99991.66;5053166;28;20489;-75
2021/08/04 09:48:12;;;;;;;4.85;3.00;;;;;;;27.21;48.04;99986.44;5053382;28;20048;-74
2021/08/04 09:50:45;;;;;;;6.05;3.17;;;;;;;27.16;47.97;99988.97;5053723;28;20045;-74
2021/08/04 09:53:27;;;;;;;7.72;3.00;;;;;;;27.28;48.03;99992.78;5053515;28;20052;-75
2021/08/04 09:56:11;;;;;;;6.32;3.25;;;;;;;27.50;48.47;99992.59;5053479;28;20037;-74
2021/08/04 09:58:43;;;;;;;7.72;3.45;;;;;;;27.70;46.94;99990.78;5053250;28;20072;-74
2021/08/04 10:01:13;;;;;;;5.47;3.10;;;;;;;27.90;46.44;99990.78;5053355;28;20095;-74
2021/08/04 10:04:02;;;;;;;5.72;3.30;;;;;;;27.88;46.11;99987.41;5053356;28;20399;-75
2021/08/04 10:06:35;;;;;;;6.80;3.35;;;;;;;27.94;46.32;99990.13;5053157;28;20048;-75
2021/08/04 10:09:06;;;;;;;5.78;3.38;;;;;;;27.90;46.48;99985.31;5051870;28;20045;-75
2021/08/04 10:11:39;;;;;;;6.20;3.15;;;;;;;27.93;46.07;99990.34;5053008;28;20127;-74
2021/08/04 10:14:08;;;;;;;6.93;3.20;;;;;;;27.85;46.65;99985.09;5053257;28;20069;-74
2021/08/04 10:16:38;;;;;;;7.70;3.58;;;;;;;27.97;46.51;99983.38;5052857;28;20044;-75
2021/08/04 10:19:07;;;;;;;7.28;3.20;;;;;;;27.90;46.63;99991.63;5052887;28;20461;-74
2021/08/04 10:21:38;;;;;;;5.78;3.15;;;;;;;28.02;46.00;99991.00;5052809;28;20072;-75
2021/08/04 10:24:12;;;;;;;8.20;3.38;;;;;;;28.00;46.76;99993.94;5053290;28;20399;-75
2021/08/04 10:26:41;;;;;;;8.38;3.33;;;;;;;28.09;47.15;99987.19;5053024;28;20103;-74
2021/08/04 10:29:10;;;;;;;7.13;3.30;;;;;;;28.12;46.29;99983.19;5052782;28;20056;-74
2021/08/04 10:31:40;;;;;;;7.72;3.22;;;;;;;28.09;46.46;99978.97;5052714;28;20044;-74
2021/08/04 10:34:23;;;;;;;6.38;3.50;;;;;;;27.58;47.44;99987.78;5052950;28;20036;-74
2021/08/04 10:36:53;;;;;;;9.00;3.72;;;;;;;27.59;47.24;99989.44;5052808;28;20554;-75
2021/08/04 10:39:25;;;;;;;5.57;3.13;;;;;;;27.41;48.10;99986.50;5052599;28;20045;-75
2021/08/04 10:42:02;;;;;;;11.13;3.70;;;;;;;27.47;47.65;99982.06;5053111;28;20045;-75
2021/08/04 10:44:30;;;;;;;6.22;3.20;;;;;;;27.63;48.83;99982.53;5052436;28;20056;-75
2021/08/04 10:47:04;;;;;;;6.47;3.33;;;;;;;27.92;48.09;99977.72;5053073;28;20079;-74
2021/08/04 10:49:35;;;;;;;5.95;3.20;;;;;;;28.24;47.06;99973.25;5052709;28;20048;-74
2021/08/04 10:52:15;;;;;;;6.25;3.25;;;;;;;28.34;46.95;99970.94;5052764;28;20047;-74
2021/08/04 10:55:10;;;;;;;6.53;3.75;;;;;;;28.46;46.41;99974.69;5055593;28;20049;-75
2021/08/04 10:58:14;;;;;;;6.05;3.40;;;;;;;28.60;46.50;99978.25;5050448;28;20060;-74
2021/08/04 11:00:45;;;;;;;7.70;4.15;;;;;;;28.65;46.26;99980.31;5056733;28;20132;-74
2021/08/04 11:03:56;;;;;;;6.88;3.95;;;;;;;28.70;45.79;99972.31;5056627;28;20041;-74
2021/08/04 11:06:27;;;;;;;5.82;3.75;;;;;;;28.84;45.14;99968.44;5056417;28;20052;-74
2021/08/04 11:09:32;;;;;;;9.32;4.40;;;;;;;28.70;45.41;99969.56;5056629;28;20501;-74
2021/08/04 11:12:06;;;;;;;6.20;3.63;;;;;;;28.71;45.83;99960.25;5056757;28;20044;-74
2021/08/04 11:14:43;;;;;;;9.13;3.70;;;;;;;28.46;46.78;99965.63;5056276;28;20432;-75
2021/08/04 11:17:13;;;;;;;5.50;3.40;;;;;;;28.28;47.74;99966.31;5056658;28;20048;-74
2021/08/04 11:20:13;;;;;;;8.07;3.83;;;;;;;27.92;48.46;99966.75;5056352;28;20045;-75
2021/08/04 11:22:53;;;;;;;6.97;3.90;;;;;;;27.95;47.63;99967.16;5056278;28;20045;-74
2021/08/04 11:25:33;;;;;;;9.70;4.32;;;;;;;27.75;47.83;99960.84;5056139;28;20128;-75
2021/08/04 11:28:11;;;;;;;6.43;3.97;;;;;;;27.71;48.70;99962.34;5056137;28;20396;-74
2021/08/04 11:30:42;;;;;;;6.25;3.88;;;;;;;27.59;48.26;99962.06;5056141;28;20041;-75
2021/08/04 11:33:35;;;;;;;7.68;3.70;;;;;;;27.72;48.38;99958.53;5056213;28;20045;-74
2021/08/04 11:36:15;;;;;;;6.43;3.88;;;;;;;27.67;48.87;99952.84;5041985;28;20081;-74
2021/08/04 11:38:49;;;;;;;6.15;3.22;;;;;;;27.66;49.16;99953.88;5056071;28;20460;-74
2021/08/04 11:41:24;;;;;;;6.20;3.33;;;;;;;27.86;49.98;99957.47;5056200;28;20067;-74
2021/08/04 11:43:59;;;;;;;7.93;3.80;;;;;;;27.71;48.89;99959.59;5056269;28;20094;-74
2021/08/04 11:46:39;;;;;;;7.50;3.67;;;;;;;27.98;49.50;99951.34;5055713;28;20076;-75
2021/08/04 11:49:10;;;;;;;6.00;3.42;;;;;;;28.33;49.02;99952.78;5055890;28;20040;-74